DAAJ/DJG METAR and TAF weather

Enter ICAO airport designator
Station Type Date Time Source
DAAJ METAR 2020/07/04 02:00 UTC NOAA

DAAJ 040200Z 02009KT 4000 SA NSC 27/M03 Q1017


Station Type Date Time Source
DAAJ Decoded METAR 2020/07/04 02:00 UTC NOAA

Djanet, Algeria (DAAJ) 24-33N 009-28E 1054M
Jul 03, 2020 - 10:00 PM EDT / 2020.07.04 0200 UTC
Wind: from the NNE (020 degrees) at 10 MPH (9 KT):0
Visibility: 2 mile(s):0
Weather: sand
Temperature: 80 F (27 C)
Dew Point: 26 F (-3 C)
Relative Humidity: 13%
Pressure (altimeter): 30.03 in. Hg (1017 hPa)
ob: DAAJ 040200Z 02009KT 4000 SA NSC 27/M03 Q1017
cycle: 2

Station Type Date Time Source
DAAJ TAF 2020/07/03 18:33 UTC NOAA

TAF DAAJ 031700Z 0318/0418 05020KT 5000 DRSA NSC PROB30
TEMPO 0318/0323 05020G30KT 2000
BECMG 0322/0401 04010KT 7000 NSW PROB40
TEMPO 0412/0418 06022KT 3000 DRSA

Example: see airport list